Badger, Minnesota
Current Conditions -  °F | °C
As of 1:54 AM on Friday 19 Dec 2014 (Local Time) from KROX Reporting Station
Overcast Overcast  
Wind Chill:   Ceiling: 1800
Heat Index: 19°   Visibility: 10mi
Dew Point: 16°   Wind: 8mph
Humidity: 86%   Direction: 160°SSE
Pressure: 30.15"   Gusts: NA
Location:  48.78°N, 96.01°W
Report Text: KROX 190754Z AUTO 16007KT 10SM OVC018 M07/M09 A3015 RMK AO2
Loading
Personal Weather Stations






























Interactive Weather Map New forecast layout! Learn more

10-Day Weather Forecast

Advertisements
Track Severe Weather on mobile